sensor_id;sensor_type;location;lat;lon;timestamp;P1;durP1;ratioP1;P2;durP2;ratioP2
60847;SDS011;46681;47.696;9.140;2023-02-01T00:00:22;3.50;;;3.20;;
60847;SDS011;46681;47.696;9.140;2023-02-01T00:02:47;3.87;;;3.57;;
60847;SDS011;46681;47.696;9.140;2023-02-01T00:05:13;3.70;;;3.40;;
60847;SDS011;46681;47.696;9.140;2023-02-01T00:07:38;3.50;;;3.20;;
60847;SDS011;46681;47.696;9.140;2023-02-01T00:10:07;3.40;;;3.10;;
60847;SDS011;46681;47.696;9.140;2023-02-01T00:12:33;3.30;;;3.10;;
60847;SDS011;46681;47.696;9.140;2023-02-01T00:15:00;3.53;;;3.20;;
60847;SDS011;46681;47.696;9.140;2023-02-01T00:17:25;3.77;;;3.40;;
60847;SDS011;46681;47.696;9.140;2023-02-01T00:19:51;4.03;;;3.33;;
60847;SDS011;46681;47.696;9.140;2023-02-01T00:22:16;4.37;;;3.40;;
60847;SDS011;46681;47.696;9.140;2023-02-01T00:24:42;3.60;;;3.30;;
60847;SDS011;46681;47.696;9.140;2023-02-01T00:27:07;3.97;;;3.30;;
60847;SDS011;46681;47.696;9.140;2023-02-01T00:29:33;3.30;;;3.00;;
60847;SDS011;46681;47.696;9.140;2023-02-01T00:31:58;4.10;;;3.37;;
60847;SDS011;46681;47.696;9.140;2023-02-01T00:34:27;5.23;;;3.60;;
60847;SDS011;46681;47.696;9.140;2023-02-01T00:36:55;4.27;;;3.53;;
60847;SDS011;46681;47.696;9.140;2023-02-01T00:39:21;3.40;;;3.10;;
60847;SDS011;46681;47.696;9.140;2023-02-01T00:41:48;3.37;;;3.10;;
60847;SDS011;46681;47.696;9.140;2023-02-01T00:44:13;4.13;;;3.40;;
60847;SDS011;46681;47.696;9.140;2023-02-01T00:46:39;3.60;;;3.30;;
60847;SDS011;46681;47.696;9.140;2023-02-01T00:49:06;3.63;;;3.33;;
60847;SDS011;46681;47.696;9.140;2023-02-01T00:51:33;3.40;;;3.00;;
60847;SDS011;46681;47.696;9.140;2023-02-01T00:53:59;3.00;;;2.70;;
60847;SDS011;46681;47.696;9.140;2023-02-01T00:56:25;4.43;;;3.17;;
60847;SDS011;46681;47.696;9.140;2023-02-01T00:58:51;4.67;;;3.27;;
60847;SDS011;46681;47.696;9.140;2023-02-01T01:01:18;3.33;;;3.03;;
60847;SDS011;46681;47.696;9.140;2023-02-01T01:03:48;3.80;;;3.50;;
60847;SDS011;46681;47.696;9.140;2023-02-01T01:06:16;3.33;;;3.13;;
60847;SDS011;46681;47.696;9.140;2023-02-01T01:08:47;4.43;;;3.27;;
60847;SDS011;46681;47.696;9.140;2023-02-01T01:11:16;3.93;;;3.13;;
60847;SDS011;46681;47.696;9.140;2023-02-01T01:13:45;4.13;;;3.30;;
60847;SDS011;46681;47.696;9.140;2023-02-01T01:16:12;3.80;;;3.50;;
60847;SDS011;46681;47.696;9.140;2023-02-01T01:18:37;3.53;;;3.20;;
60847;SDS011;46681;47.696;9.140;2023-02-01T01:21:04;4.33;;;2.90;;
60847;SDS011;46681;47.696;9.140;2023-02-01T01:23:35;3.17;;;2.97;;
60847;SDS011;46681;47.696;9.140;2023-02-01T01:26:00;3.50;;;3.20;;
60847;SDS011;46681;47.696;9.140;2023-02-01T01:28:31;3.33;;;3.03;;
60847;SDS011;46681;47.696;9.140;2023-02-01T01:30:58;3.37;;;3.07;;
60847;SDS011;46681;47.696;9.140;2023-02-01T01:33:24;4.53;;;3.83;;
60847;SDS011;46681;47.696;9.140;2023-02-01T01:35:51;3.40;;;3.20;;
60847;SDS011;46681;47.696;9.140;2023-02-01T01:38:16;3.67;;;3.27;;
60847;SDS011;46681;47.696;9.140;2023-02-01T01:40:46;3.10;;;2.90;;
60847;SDS011;46681;47.696;9.140;2023-02-01T01:43:15;3.60;;;3.30;;
60847;SDS011;46681;47.696;9.140;2023-02-01T01:45:42;4.17;;;3.77;;
60847;SDS011;46681;47.696;9.140;2023-02-01T01:48:09;3.87;;;3.57;;
60847;SDS011;46681;47.696;9.140;2023-02-01T01:50:50;3.97;;;3.27;;
60847;SDS011;46681;47.696;9.140;2023-02-01T01:53:31;3.33;;;3.03;;
60847;SDS011;46681;47.696;9.140;2023-02-01T01:56:13;3.97;;;3.57;;
60847;SDS011;46681;47.696;9.140;2023-02-01T01:58:40;5.67;;;3.90;;
60847;SDS011;46681;47.696;9.140;2023-02-01T02:01:10;3.63;;;3.30;;
60847;SDS011;46681;47.696;9.140;2023-02-01T02:03:40;4.00;;;3.67;;
60847;SDS011;46681;47.696;9.140;2023-02-01T02:06:14;3.40;;;3.10;;
60847;SDS011;46681;47.696;9.140;2023-02-01T02:08:51;3.90;;;3.50;;
60847;SDS011;46681;47.696;9.140;2023-02-01T02:11:17;3.50;;;3.20;;
60847;SDS011;46681;47.696;9.140;2023-02-01T02:13:44;3.63;;;3.33;;
60847;SDS011;46681;47.696;9.140;2023-02-01T02:19:21;3.50;;;3.20;;
60847;SDS011;46681;47.696;9.140;2023-02-01T02:24:57;3.60;;;3.30;;
60847;SDS011;46681;47.696;9.140;2023-02-01T02:36:21;4.23;;;3.83;;
60847;SDS011;46681;47.696;9.140;2023-02-01T02:44:17;3.13;;;2.93;;
60847;SDS011;46681;47.696;9.140;2023-02-01T02:46:58;4.13;;;3.73;;
60847;SDS011;46681;47.696;9.140;2023-02-01T02:52:16;4.27;;;3.87;;
60847;SDS011;46681;47.696;9.140;2023-02-01T02:54:46;5.60;;;3.90;;
60847;SDS011;46681;47.696;9.140;2023-02-01T02:57:17;4.20;;;3.80;;
60847;SDS011;46681;47.696;9.140;2023-02-01T02:59:46;5.27;;;3.80;;
60847;SDS011;46681;47.696;9.140;2023-02-01T03:02:13;3.60;;;3.40;;
60847;SDS011;46681;47.696;9.140;2023-02-01T03:04:40;4.77;;;3.50;;
60847;SDS011;46681;47.696;9.140;2023-02-01T03:07:14;3.20;;;2.90;;
60847;SDS011;46681;47.696;9.140;2023-02-01T03:10:00;3.90;;;3.50;;
60847;SDS011;46681;47.696;9.140;2023-02-01T03:12:35;4.20;;;3.60;;
60847;SDS011;46681;47.696;9.140;2023-02-01T03:15:08;4.00;;;3.30;;
60847;SDS011;46681;47.696;9.140;2023-02-01T03:17:38;4.47;;;3.50;;
60847;SDS011;46681;47.696;9.140;2023-02-01T03:20:06;4.00;;;3.33;;
60847;SDS011;46681;47.696;9.140;2023-02-01T03:22:35;3.90;;;3.57;;
60847;SDS011;46681;47.696;9.140;2023-02-01T03:25:05;4.00;;;3.70;;
60847;SDS011;46681;47.696;9.140;2023-02-01T03:27:40;4.30;;;3.93;;
60847;SDS011;46681;47.696;9.140;2023-02-01T03:32:42;6.83;;;3.90;;
60847;SDS011;46681;47.696;9.140;2023-02-01T03:35:12;5.40;;;3.90;;
60847;SDS011;46681;47.696;9.140;2023-02-01T03:37:38;3.93;;;3.63;;
60847;SDS011;46681;47.696;9.140;2023-02-01T03:40:05;4.00;;;3.70;;
60847;SDS011;46681;47.696;9.140;2023-02-01T03:42:35;4.37;;;3.97;;
60847;SDS011;46681;47.696;9.140;2023-02-01T03:47:35;4.30;;;3.90;;
60847;SDS011;46681;47.696;9.140;2023-02-01T03:50:11;5.17;;;4.43;;
60847;SDS011;46681;47.696;9.140;2023-02-01T03:52:47;4.80;;;4.40;;
60847;SDS011;46681;47.696;9.140;2023-02-01T03:55:23;4.63;;;4.23;;
60847;SDS011;46681;47.696;9.140;2023-02-01T04:00:32;4.50;;;4.03;;
60847;SDS011;46681;47.696;9.140;2023-02-01T04:02:58;4.20;;;3.80;;
60847;SDS011;46681;47.696;9.140;2023-02-01T04:05:26;4.67;;;4.20;;
60847;SDS011;46681;47.696;9.140;2023-02-01T04:07:53;6.03;;;4.53;;
60847;SDS011;46681;47.696;9.140;2023-02-01T04:10:18;4.37;;;4.00;;
60847;SDS011;46681;47.696;9.140;2023-02-01T04:12:45;4.40;;;4.00;;
60847;SDS011;46681;47.696;9.140;2023-02-01T04:15:11;4.53;;;4.13;;
60847;SDS011;46681;47.696;9.140;2023-02-01T04:17:37;4.30;;;3.87;;
60847;SDS011;46681;47.696;9.140;2023-02-01T04:20:08;4.60;;;4.20;;
60847;SDS011;46681;47.696;9.140;2023-02-01T04:22:37;4.07;;;3.77;;
60847;SDS011;46681;47.696;9.140;2023-02-01T04:25:06;4.53;;;4.13;;
60847;SDS011;46681;47.696;9.140;2023-02-01T04:27:33;4.93;;;3.90;;
60847;SDS011;46681;47.696;9.140;2023-02-01T04:29:59;4.37;;;3.97;;
60847;SDS011;46681;47.696;9.140;2023-02-01T04:32:24;4.50;;;4.10;;
60847;SDS011;46681;47.696;9.140;2023-02-01T04:34:50;4.87;;;4.37;;
60847;SDS011;46681;47.696;9.140;2023-02-01T04:37:15;4.20;;;3.90;;
60847;SDS011;46681;47.696;9.140;2023-02-01T04:39:41;4.27;;;3.67;;
60847;SDS011;46681;47.696;9.140;2023-02-01T04:42:17;4.47;;;4.00;;
60847;SDS011;46681;47.696;9.140;2023-02-01T04:44:43;4.33;;;3.93;;
60847;SDS011;46681;47.696;9.140;2023-02-01T04:47:12;4.30;;;3.90;;
60847;SDS011;46681;47.696;9.140;2023-02-01T04:49:38;4.03;;;3.63;;
60847;SDS011;46681;47.696;9.140;2023-02-01T04:52:04;4.67;;;4.20;;
60847;SDS011;46681;47.696;9.140;2023-02-01T04:54:32;4.83;;;4.10;;
60847;SDS011;46681;47.696;9.140;2023-02-01T04:56:58;4.23;;;3.73;;
60847;SDS011;46681;47.696;9.140;2023-02-01T04:59:23;5.37;;;4.50;;
60847;SDS011;46681;47.696;9.140;2023-02-01T05:01:49;4.37;;;3.97;;
60847;SDS011;46681;47.696;9.140;2023-02-01T05:04:19;4.60;;;4.20;;
60847;SDS011;46681;47.696;9.140;2023-02-01T05:06:46;4.27;;;3.87;;
60847;SDS011;46681;47.696;9.140;2023-02-01T05:09:12;4.70;;;4.30;;
60847;SDS011;46681;47.696;9.140;2023-02-01T05:11:47;4.63;;;4.23;;
60847;SDS011;46681;47.696;9.140;2023-02-01T05:14:13;4.97;;;4.57;;
60847;SDS011;46681;47.696;9.140;2023-02-01T05:16:39;5.20;;;4.20;;
60847;SDS011;46681;47.696;9.140;2023-02-01T05:19:06;4.90;;;4.40;;
60847;SDS011;46681;47.696;9.140;2023-02-01T05:21:35;4.90;;;4.20;;
60847;SDS011;46681;47.696;9.140;2023-02-01T05:24:01;4.23;;;3.87;;
60847;SDS011;46681;47.696;9.140;2023-02-01T05:26:27;5.37;;;4.60;;
60847;SDS011;46681;47.696;9.140;2023-02-01T05:28:52;4.70;;;4.30;;
60847;SDS011;46681;47.696;9.140;2023-02-01T05:31:19;4.50;;;4.10;;
60847;SDS011;46681;47.696;9.140;2023-02-01T05:33:50;4.60;;;4.30;;
60847;SDS011;46681;47.696;9.140;2023-02-01T05:36:17;4.63;;;4.23;;
60847;SDS011;46681;47.696;9.140;2023-02-01T05:38:43;4.53;;;4.13;;
60847;SDS011;46681;47.696;9.140;2023-02-01T05:41:09;4.90;;;4.37;;
60847;SDS011;46681;47.696;9.140;2023-02-01T05:43:36;4.53;;;4.03;;
60847;SDS011;46681;47.696;9.140;2023-02-01T05:46:02;4.50;;;4.00;;
60847;SDS011;46681;47.696;9.140;2023-02-01T05:48:35;4.60;;;4.20;;
60847;SDS011;46681;47.696;9.140;2023-02-01T05:51:08;5.37;;;4.33;;
60847;SDS011;46681;47.696;9.140;2023-02-01T05:53:35;5.10;;;4.30;;
60847;SDS011;46681;47.696;9.140;2023-02-01T05:56:06;4.47;;;3.60;;
60847;SDS011;46681;47.696;9.140;2023-02-01T05:58:36;4.60;;;4.13;;
60847;SDS011;46681;47.696;9.140;2023-02-01T06:01:02;7.27;;;4.60;;
60847;SDS011;46681;47.696;9.140;2023-02-01T06:03:37;4.70;;;4.30;;
60847;SDS011;46681;47.696;9.140;2023-02-01T06:06:05;4.43;;;4.03;;
60847;SDS011;46681;47.696;9.140;2023-02-01T06:08:30;4.77;;;4.37;;
60847;SDS011;46681;47.696;9.140;2023-02-01T06:11:03;4.57;;;4.23;;
60847;SDS011;46681;47.696;9.140;2023-02-01T06:13:34;3.80;;;3.50;;
60847;SDS011;46681;47.696;9.140;2023-02-01T06:16:02;4.40;;;4.00;;
60847;SDS011;46681;47.696;9.140;2023-02-01T06:18:28;4.47;;;4.07;;
60847;SDS011;46681;47.696;9.140;2023-02-01T06:21:04;4.67;;;4.27;;
60847;SDS011;46681;47.696;9.140;2023-02-01T06:23:35;4.70;;;4.30;;
60847;SDS011;46681;47.696;9.140;2023-02-01T06:26:09;4.30;;;3.67;;
60847;SDS011;46681;47.696;9.140;2023-02-01T06:28:39;5.17;;;4.33;;
60847;SDS011;46681;47.696;9.140;2023-02-01T06:31:05;5.17;;;4.30;;
60847;SDS011;46681;47.696;9.140;2023-02-01T06:33:32;4.10;;;3.50;;
60847;SDS011;46681;47.696;9.140;2023-02-01T06:35:58;4.33;;;3.93;;
60847;SDS011;46681;47.696;9.140;2023-02-01T06:38:30;4.00;;;3.60;;
60847;SDS011;46681;47.696;9.140;2023-02-01T06:41:01;4.27;;;3.87;;
60847;SDS011;46681;47.696;9.140;2023-02-01T06:43:29;4.50;;;3.93;;
60847;SDS011;46681;47.696;9.140;2023-02-01T06:46:02;4.17;;;3.87;;
60847;SDS011;46681;47.696;9.140;2023-02-01T06:48:32;4.83;;;4.00;;
60847;SDS011;46681;47.696;9.140;2023-02-01T06:50:58;4.53;;;4.13;;
60847;SDS011;46681;47.696;9.140;2023-02-01T06:53:37;4.53;;;4.13;;
60847;SDS011;46681;47.696;9.140;2023-02-01T06:56:08;4.57;;;3.93;;
60847;SDS011;46681;47.696;9.140;2023-02-01T06:58:38;3.80;;;3.50;;
60847;SDS011;46681;47.696;9.140;2023-02-01T07:01:08;4.57;;;4.17;;
60847;SDS011;46681;47.696;9.140;2023-02-01T07:03:37;4.67;;;3.90;;
60847;SDS011;46681;47.696;9.140;2023-02-01T07:06:08;4.30;;;3.90;;
60847;SDS011;46681;47.696;9.140;2023-02-01T07:08:36;4.23;;;3.83;;
60847;SDS011;46681;47.696;9.140;2023-02-01T07:11:09;3.97;;;3.67;;
60847;SDS011;46681;47.696;9.140;2023-02-01T07:13:38;5.87;;;3.77;;
60847;SDS011;46681;47.696;9.140;2023-02-01T07:16:16;4.10;;;3.70;;
60847;SDS011;46681;47.696;9.140;2023-02-01T07:18:44;4.20;;;3.90;;
60847;SDS011;46681;47.696;9.140;2023-02-01T07:21:19;5.07;;;3.70;;
60847;SDS011;46681;47.696;9.140;2023-02-01T07:23:44;4.20;;;3.80;;
60847;SDS011;46681;47.696;9.140;2023-02-01T07:26:13;4.33;;;3.93;;
60847;SDS011;46681;47.696;9.140;2023-02-01T07:28:42;4.97;;;3.67;;
60847;SDS011;46681;47.696;9.140;2023-02-01T07:31:16;4.03;;;3.60;;
60847;SDS011;46681;47.696;9.140;2023-02-01T07:33:47;5.37;;;3.83;;
60847;SDS011;46681;47.696;9.140;2023-02-01T07:36:15;5.50;;;4.20;;
60847;SDS011;46681;47.696;9.140;2023-02-01T07:38:43;4.57;;;3.93;;
60847;SDS011;46681;47.696;9.140;2023-02-01T07:41:11;4.03;;;3.73;;
60847;SDS011;46681;47.696;9.140;2023-02-01T07:43:37;4.20;;;3.83;;
60847;SDS011;46681;47.696;9.140;2023-02-01T07:46:05;4.50;;;3.50;;
60847;SDS011;46681;47.696;9.140;2023-02-01T07:48:36;3.83;;;3.50;;
60847;SDS011;46681;47.696;9.140;2023-02-01T07:51:11;3.70;;;3.40;;
60847;SDS011;46681;47.696;9.140;2023-02-01T07:53:44;4.40;;;4.00;;
60847;SDS011;46681;47.696;9.140;2023-02-01T07:56:15;3.60;;;3.30;;
60847;SDS011;46681;47.696;9.140;2023-02-01T07:58:53;4.90;;;4.07;;
60847;SDS011;46681;47.696;9.140;2023-02-01T08:01:20;4.80;;;4.30;;
60847;SDS011;46681;47.696;9.140;2023-02-01T08:03:54;4.53;;;4.10;;
60847;SDS011;46681;47.696;9.140;2023-02-01T08:06:26;5.07;;;4.57;;
60847;SDS011;46681;47.696;9.140;2023-02-01T08:09:01;4.77;;;4.30;;
60847;SDS011;46681;47.696;9.140;2023-02-01T08:11:27;4.80;;;4.30;;
60847;SDS011;46681;47.696;9.140;2023-02-01T08:13:53;5.20;;;4.70;;
60847;SDS011;46681;47.696;9.140;2023-02-01T08:16:19;5.40;;;4.77;;
60847;SDS011;46681;47.696;9.140;2023-02-01T08:18:48;6.20;;;4.90;;
60847;SDS011;46681;47.696;9.140;2023-02-01T08:21:22;5.63;;;5.13;;
60847;SDS011;46681;47.696;9.140;2023-02-01T08:23:56;5.50;;;5.00;;
60847;SDS011;46681;47.696;9.140;2023-02-01T08:26:23;5.63;;;5.13;;
60847;SDS011;46681;47.696;9.140;2023-02-01T08:28:52;6.33;;;5.47;;
60847;SDS011;46681;47.696;9.140;2023-02-01T08:31:22;6.93;;;6.07;;
60847;SDS011;46681;47.696;9.140;2023-02-01T08:33:58;7.20;;;6.23;;
60847;SDS011;46681;47.696;9.140;2023-02-01T08:36:29;6.80;;;5.73;;
60847;SDS011;46681;47.696;9.140;2023-02-01T08:38:58;7.50;;;6.47;;
60847;SDS011;46681;47.696;9.140;2023-02-01T08:41:26;7.57;;;6.13;;
60847;SDS011;46681;47.696;9.140;2023-02-01T08:43:59;6.90;;;6.10;;
60847;SDS011;46681;47.696;9.140;2023-02-01T08:46:24;7.80;;;6.40;;
60847;SDS011;46681;47.696;9.140;2023-02-01T08:48:51;7.10;;;6.40;;
60847;SDS011;46681;47.696;9.140;2023-02-01T08:51:22;6.67;;;5.97;;
60847;SDS011;46681;47.696;9.140;2023-02-01T08:53:48;6.47;;;5.73;;
60847;SDS011;46681;47.696;9.140;2023-02-01T08:56:15;6.93;;;6.23;;
60847;SDS011;46681;47.696;9.140;2023-02-01T08:58:42;6.37;;;5.77;;
60847;SDS011;46681;47.696;9.140;2023-02-01T09:01:14;6.13;;;5.53;;
60847;SDS011;46681;47.696;9.140;2023-02-01T09:03:42;6.60;;;5.90;;
60847;SDS011;46681;47.696;9.140;2023-02-01T09:06:14;6.73;;;6.03;;
60847;SDS011;46681;47.696;9.140;2023-02-01T09:08:47;6.70;;;5.67;;
60847;SDS011;46681;47.696;9.140;2023-02-01T09:11:18;6.67;;;5.63;;
60847;SDS011;46681;47.696;9.140;2023-02-01T09:13:50;6.87;;;6.17;;
60847;SDS011;46681;47.696;9.140;2023-02-01T09:16:17;7.43;;;6.73;;
60847;SDS011;46681;47.696;9.140;2023-02-01T09:18:42;9.00;;;6.47;;
60847;SDS011;46681;47.696;9.140;2023-02-01T09:21:09;6.33;;;5.73;;
60847;SDS011;46681;47.696;9.140;2023-02-01T09:23:39;6.53;;;5.77;;
60847;SDS011;46681;47.696;9.140;2023-02-01T09:26:16;6.70;;;5.83;;
60847;SDS011;46681;47.696;9.140;2023-02-01T09:28:45;6.93;;;6.27;;
60847;SDS011;46681;47.696;9.140;2023-02-01T09:31:13;6.23;;;5.60;;
60847;SDS011;46681;47.696;9.140;2023-02-01T09:33:40;7.07;;;6.13;;
60847;SDS011;46681;47.696;9.140;2023-02-01T09:36:07;6.80;;;6.10;;
60847;SDS011;46681;47.696;9.140;2023-02-01T09:38:38;7.03;;;5.50;;
60847;SDS011;46681;47.696;9.140;2023-02-01T09:46:37;6.87;;;6.17;;
60847;SDS011;46681;47.696;9.140;2023-02-01T09:49:08;6.10;;;5.47;;
60847;SDS011;46681;47.696;9.140;2023-02-01T09:51:55;6.47;;;5.70;;
60847;SDS011;46681;47.696;9.140;2023-02-01T09:55:04;6.07;;;5.10;;
60847;SDS011;46681;47.696;9.140;2023-02-01T10:00:29;6.27;;;4.87;;
60847;SDS011;46681;47.696;9.140;2023-02-01T10:03:03;5.07;;;4.57;;
60847;SDS011;46681;47.696;9.140;2023-02-01T10:05:43;5.80;;;5.30;;
60847;SDS011;46681;47.696;9.140;2023-02-01T10:14:16;5.60;;;5.00;;
60847;SDS011;46681;47.696;9.140;2023-02-01T10:16:51;5.70;;;4.77;;
60847;SDS011;46681;47.696;9.140;2023-02-01T10:22:54;4.80;;;4.40;;
60847;SDS011;46681;47.696;9.140;2023-02-01T10:25:17;5.50;;;5.00;;
60847;SDS011;46681;47.696;9.140;2023-02-01T10:27:51;5.00;;;4.60;;
60847;SDS011;46681;47.696;9.140;2023-02-01T10:33:07;6.30;;;4.30;;
60847;SDS011;46681;47.696;9.140;2023-02-01T10:35:46;3.70;;;3.40;;
60847;SDS011;46681;47.696;9.140;2023-02-01T10:38:39;5.33;;;4.83;;
60847;SDS011;46681;47.696;9.140;2023-02-01T10:44:00;5.23;;;4.57;;
60847;SDS011;46681;47.696;9.140;2023-02-01T10:46:36;4.70;;;3.97;;
60847;SDS011;46681;47.696;9.140;2023-02-01T10:49:08;4.60;;;4.07;;
60847;SDS011;46681;47.696;9.140;2023-02-01T10:54:42;4.30;;;3.90;;
60847;SDS011;46681;47.696;9.140;2023-02-01T10:57:08;5.33;;;4.27;;
60847;SDS011;46681;47.696;9.140;2023-02-01T10:59:45;4.30;;;3.90;;
60847;SDS011;46681;47.696;9.140;2023-02-01T11:02:20;3.97;;;3.40;;
60847;SDS011;46681;47.696;9.140;2023-02-01T11:05:10;4.53;;;4.13;;
60847;SDS011;46681;47.696;9.140;2023-02-01T11:07:54;4.40;;;3.63;;
60847;SDS011;46681;47.696;9.140;2023-02-01T11:10:41;3.73;;;3.43;;
60847;SDS011;46681;47.696;9.140;2023-02-01T11:13:15;4.07;;;3.77;;
60847;SDS011;46681;47.696;9.140;2023-02-01T11:15:44;3.67;;;3.30;;
60847;SDS011;46681;47.696;9.140;2023-02-01T11:18:25;4.13;;;2.80;;
60847;SDS011;46681;47.696;9.140;2023-02-01T11:21:00;4.13;;;3.20;;
60847;SDS011;46681;47.696;9.140;2023-02-01T11:23:29;3.73;;;3.23;;
60847;SDS011;46681;47.696;9.140;2023-02-01T11:29:21;3.37;;;2.97;;
60847;SDS011;46681;47.696;9.140;2023-02-01T11:32:25;2.70;;;2.50;;
60847;SDS011;46681;47.696;9.140;2023-02-01T11:34:56;3.00;;;2.70;;
60847;SDS011;46681;47.696;9.140;2023-02-01T11:37:32;2.63;;;2.43;;
60847;SDS011;46681;47.696;9.140;2023-02-01T11:40:09;2.57;;;2.37;;
60847;SDS011;46681;47.696;9.140;2023-02-01T11:45:42;4.30;;;2.87;;
60847;SDS011;46681;47.696;9.140;2023-02-01T11:48:25;3.37;;;2.80;;
60847;SDS011;46681;47.696;9.140;2023-02-01T12:03:39;2.60;;;2.40;;
60847;SDS011;46681;47.696;9.140;2023-02-01T12:34:15;4.80;;;2.67;;
60847;SDS011;46681;47.696;9.140;2023-02-01T12:42:38;3.30;;;2.57;;
60847;SDS011;46681;47.696;9.140;2023-02-01T12:45:42;4.43;;;2.80;;
60847;SDS011;46681;47.696;9.140;2023-02-01T12:48:31;3.13;;;2.90;;
60847;SDS011;46681;47.696;9.140;2023-02-01T12:51:18;3.93;;;3.00;;
60847;SDS011;46681;47.696;9.140;2023-02-01T12:54:57;4.10;;;3.03;;
60847;SDS011;46681;47.696;9.140;2023-02-01T12:57:05;4.70;;;3.20;;
60847;SDS011;46681;47.696;9.140;2023-02-01T13:03:03;3.67;;;2.83;;
60847;SDS011;46681;47.696;9.140;2023-02-01T13:06:02;5.47;;;3.60;;
60847;SDS011;46681;47.696;9.140;2023-02-01T13:11:44;5.23;;;2.80;;
60847;SDS011;46681;47.696;9.140;2023-02-01T13:16:59;5.27;;;2.90;;
60847;SDS011;46681;47.696;9.140;2023-02-01T13:19:51;4.63;;;2.80;;
60847;SDS011;46681;47.696;9.140;2023-02-01T13:22:32;5.90;;;2.97;;
60847;SDS011;46681;47.696;9.140;2023-02-01T13:25:12;5.43;;;2.70;;
60847;SDS011;46681;47.696;9.140;2023-02-01T13:27:55;4.97;;;2.40;;
60847;SDS011;46681;47.696;9.140;2023-02-01T13:30:30;4.27;;;2.23;;
60847;SDS011;46681;47.696;9.140;2023-02-01T13:44:14;6.10;;;2.30;;
60847;SDS011;46681;47.696;9.140;2023-02-01T13:47:19;3.47;;;2.30;;
60847;SDS011;46681;47.696;9.140;2023-02-01T13:50:03;8.43;;;2.70;;
60847;SDS011;46681;47.696;9.140;2023-02-01T13:52:40;4.43;;;2.27;;
60847;SDS011;46681;47.696;9.140;2023-02-01T13:58:06;5.83;;;2.30;;
60847;SDS011;46681;47.696;9.140;2023-02-01T14:03:53;5.33;;;2.50;;
60847;SDS011;46681;47.696;9.140;2023-02-01T14:11:37;4.17;;;2.13;;
60847;SDS011;46681;47.696;9.140;2023-02-01T14:19:30;4.23;;;2.00;;
60847;SDS011;46681;47.696;9.140;2023-02-01T14:22:47;4.37;;;2.13;;
60847;SDS011;46681;47.696;9.140;2023-02-01T14:25:04;5.73;;;2.23;;
60847;SDS011;46681;47.696;9.140;2023-02-01T14:27:43;5.67;;;2.10;;
60847;SDS011;46681;47.696;9.140;2023-02-01T14:30:16;4.77;;;2.30;;
60847;SDS011;46681;47.696;9.140;2023-02-01T14:32:42;6.93;;;2.77;;
60847;SDS011;46681;47.696;9.140;2023-02-01T14:35:24;4.07;;;2.50;;
60847;SDS011;46681;47.696;9.140;2023-02-01T14:37:53;8.13;;;2.50;;
60847;SDS011;46681;47.696;9.140;2023-02-01T14:40:28;3.67;;;2.60;;
60847;SDS011;46681;47.696;9.140;2023-02-01T14:42:55;5.00;;;2.37;;
60847;SDS011;46681;47.696;9.140;2023-02-01T14:56:07;5.90;;;2.40;;
60847;SDS011;46681;47.696;9.140;2023-02-01T15:04:18;4.27;;;2.03;;
60847;SDS011;46681;47.696;9.140;2023-02-01T15:07:11;4.67;;;2.00;;
60847;SDS011;46681;47.696;9.140;2023-02-01T15:10:23;5.97;;;2.10;;
60847;SDS011;46681;47.696;9.140;2023-02-01T15:13:21;5.23;;;2.10;;
60847;SDS011;46681;47.696;9.140;2023-02-01T15:16:19;4.47;;;2.43;;
60847;SDS011;46681;47.696;9.140;2023-02-01T15:19:20;7.93;;;2.60;;
60847;SDS011;46681;47.696;9.140;2023-02-01T15:21:52;3.93;;;2.20;;
60847;SDS011;46681;47.696;9.140;2023-02-01T15:27:02;5.93;;;2.20;;
60847;SDS011;46681;47.696;9.140;2023-02-01T15:29:37;4.90;;;2.40;;
60847;SDS011;46681;47.696;9.140;2023-02-01T15:32:05;5.93;;;2.30;;
60847;SDS011;46681;47.696;9.140;2023-02-01T15:34:52;4.23;;;2.40;;
60847;SDS011;46681;47.696;9.140;2023-02-01T15:37:25;5.67;;;2.63;;
60847;SDS011;46681;47.696;9.140;2023-02-01T15:42:54;5.10;;;2.00;;
60847;SDS011;46681;47.696;9.140;2023-02-01T15:45:35;5.50;;;2.33;;
60847;SDS011;46681;47.696;9.140;2023-02-01T15:48:21;6.17;;;2.60;;
60847;SDS011;46681;47.696;9.140;2023-02-01T15:51:14;2.97;;;2.33;;
60847;SDS011;46681;47.696;9.140;2023-02-01T15:54:15;6.17;;;2.77;;
60847;SDS011;46681;47.696;9.140;2023-02-01T15:57:08;4.60;;;2.20;;
60847;SDS011;46681;47.696;9.140;2023-02-01T16:09:40;4.63;;;2.30;;
60847;SDS011;46681;47.696;9.140;2023-02-01T16:12:34;5.60;;;2.40;;
60847;SDS011;46681;47.696;9.140;2023-02-01T16:15:07;5.40;;;2.50;;
60847;SDS011;46681;47.696;9.140;2023-02-01T16:17:42;5.37;;;2.47;;
60847;SDS011;46681;47.696;9.140;2023-02-01T16:20:12;5.53;;;2.13;;
60847;SDS011;46681;47.696;9.140;2023-02-01T16:22:40;6.37;;;2.70;;
60847;SDS011;46681;47.696;9.140;2023-02-01T16:25:08;6.63;;;2.53;;
60847;SDS011;46681;47.696;9.140;2023-02-01T16:27:37;6.83;;;2.77;;
60847;SDS011;46681;47.696;9.140;2023-02-01T16:30:07;4.40;;;2.47;;
60847;SDS011;46681;47.696;9.140;2023-02-01T16:32:47;5.27;;;2.70;;
60847;SDS011;46681;47.696;9.140;2023-02-01T16:35:23;2.80;;;2.10;;
60847;SDS011;46681;47.696;9.140;2023-02-01T16:38:20;6.77;;;2.53;;
60847;SDS011;46681;47.696;9.140;2023-02-01T16:40:59;7.30;;;3.00;;
60847;SDS011;46681;47.696;9.140;2023-02-01T16:43:27;7.57;;;2.40;;
60847;SDS011;46681;47.696;9.140;2023-02-01T16:46:17;5.10;;;2.73;;
60847;SDS011;46681;47.696;9.140;2023-02-01T16:48:46;4.33;;;2.23;;
60847;SDS011;46681;47.696;9.140;2023-02-01T16:51:24;5.33;;;2.80;;
60847;SDS011;46681;47.696;9.140;2023-02-01T16:54:14;8.27;;;3.00;;
60847;SDS011;46681;47.696;9.140;2023-02-01T16:56:47;6.93;;;2.63;;
60847;SDS011;46681;47.696;9.140;2023-02-01T16:59:15;6.80;;;2.67;;
60847;SDS011;46681;47.696;9.140;2023-02-01T17:04:43;5.03;;;2.50;;
60847;SDS011;46681;47.696;9.140;2023-02-01T17:07:15;4.53;;;2.70;;
60847;SDS011;46681;47.696;9.140;2023-02-01T17:10:01;3.70;;;2.20;;
60847;SDS011;46681;47.696;9.140;2023-02-01T17:12:41;4.07;;;2.23;;
60847;SDS011;46681;47.696;9.140;2023-02-01T17:15:08;5.47;;;2.37;;
60847;SDS011;46681;47.696;9.140;2023-02-01T17:17:38;3.93;;;2.07;;
60847;SDS011;46681;47.696;9.140;2023-02-01T17:20:19;3.97;;;2.23;;
60847;SDS011;46681;47.696;9.140;2023-02-01T17:22:57;4.13;;;3.13;;
60847;SDS011;46681;47.696;9.140;2023-02-01T17:25:30;6.03;;;2.47;;
60847;SDS011;46681;47.696;9.140;2023-02-01T17:27:59;4.40;;;2.60;;
60847;SDS011;46681;47.696;9.140;2023-02-01T17:30:46;6.17;;;2.20;;
60847;SDS011;46681;47.696;9.140;2023-02-01T17:33:25;8.00;;;2.60;;
60847;SDS011;46681;47.696;9.140;2023-02-01T17:38:54;11.20;;;2.67;;
60847;SDS011;46681;47.696;9.140;2023-02-01T17:41:21;7.90;;;2.50;;
60847;SDS011;46681;47.696;9.140;2023-02-01T17:43:48;8.27;;;2.60;;
60847;SDS011;46681;47.696;9.140;2023-02-01T17:46:19;8.10;;;2.70;;
60847;SDS011;46681;47.696;9.140;2023-02-01T17:48:44;10.23;;;2.83;;
60847;SDS011;46681;47.696;9.140;2023-02-01T17:51:15;6.37;;;2.83;;
60847;SDS011;46681;47.696;9.140;2023-02-01T17:53:56;7.63;;;2.43;;
60847;SDS011;46681;47.696;9.140;2023-02-01T17:56:37;6.93;;;2.80;;
60847;SDS011;46681;47.696;9.140;2023-02-01T17:59:14;5.83;;;2.83;;
60847;SDS011;46681;47.696;9.140;2023-02-01T18:01:53;4.67;;;2.57;;
60847;SDS011;46681;47.696;9.140;2023-02-01T18:04:19;7.70;;;3.13;;
60847;SDS011;46681;47.696;9.140;2023-02-01T18:06:57;4.93;;;2.40;;
60847;SDS011;46681;47.696;9.140;2023-02-01T18:09:28;3.13;;;2.20;;
60847;SDS011;46681;47.696;9.140;2023-02-01T18:11:59;6.73;;;2.40;;
60847;SDS011;46681;47.696;9.140;2023-02-01T18:14:42;4.93;;;2.50;;
60847;SDS011;46681;47.696;9.140;2023-02-01T18:17:07;5.10;;;2.73;;
60847;SDS011;46681;47.696;9.140;2023-02-01T18:19:33;5.77;;;2.90;;
60847;SDS011;46681;47.696;9.140;2023-02-01T18:21:58;6.00;;;2.60;;
60847;SDS011;46681;47.696;9.140;2023-02-01T18:24:29;4.23;;;2.60;;